createdAt,value
2019-05-23T00:00:02.733Z,100849.95
2019-05-23T00:02:51.892Z,100856.14
2019-05-23T00:05:45.468Z,100847.73
2019-05-23T00:08:14.896Z,100858.73
2019-05-23T00:10:52.354Z,100856.14
2019-05-23T00:13:42.448Z,100855.14
2019-05-23T00:16:12.153Z,100854.47
2019-05-23T00:18:39.731Z,100856.03
2019-05-23T00:21:08.712Z,100858.23
2019-05-23T00:23:36.848Z,100854.84
2019-05-23T00:26:04.115Z,100851.04
2019-05-23T00:28:31.895Z,100855.23
2019-05-23T00:31:07.060Z,100856.97
2019-05-23T00:33:36.445Z,100856.03
2019-05-23T00:36:04.523Z,100850.04
2019-05-23T00:38:32.113Z,100854.66
2019-05-23T00:41:00.414Z,100843.16
2019-05-23T00:43:28.779Z,100848.14
2019-05-23T00:45:57.198Z,100851.94
2019-05-23T00:48:24.969Z,100850.55
2019-05-23T00:50:53.631Z,100845.09
2019-05-23T00:53:22.739Z,100844.31
2019-05-23T00:55:51.542Z,100839.98
2019-05-23T00:58:19.225Z,100849.84
2019-05-23T01:00:50.049Z,100852.69
2019-05-23T01:03:20.572Z,100845.66
2019-05-23T01:05:47.953Z,100849.06
2019-05-23T01:08:16.226Z,100846.48
2019-05-23T01:10:44.134Z,100845.08
2019-05-23T01:13:14.655Z,100854.66
2019-05-23T01:15:42.869Z,100854.47
2019-05-23T01:18:12.156Z,100854.10
2019-05-23T01:21:06.906Z,100846.90
2019-05-23T01:23:36.728Z,100847.14
2019-05-23T01:26:04.688Z,100848.03
2019-05-23T01:28:32.429Z,100853.94
2019-05-23T01:31:04.514Z,100854.18
2019-05-23T01:33:33.139Z,100852.81
2019-05-23T01:36:01.103Z,100858.84
2019-05-23T01:38:29.915Z,100855.84
2019-05-23T01:40:57.595Z,100856.83
2019-05-23T01:43:25.122Z,100854.48
2019-05-23T01:45:52.868Z,100850.73
2019-05-23T01:48:21.269Z,100856.38
2019-05-23T01:50:49.455Z,100857.43
2019-05-23T01:53:17.236Z,100851.78
2019-05-23T01:55:46.108Z,100850.92
2019-05-23T01:58:14.343Z,100847.70
2019-05-23T02:00:42.526Z,100851.06
2019-05-23T02:03:10.692Z,100850.84
2019-05-23T02:05:38.242Z,100843.11
2019-05-23T02:08:10.634Z,100847.98
2019-05-23T02:10:38.316Z,100850.09
2019-05-23T02:13:06.437Z,100844.25
2019-05-23T02:15:34.377Z,100846.42
2019-05-23T02:18:02.367Z,100848.75
2019-05-23T02:20:31.220Z,100849.50
2019-05-23T02:22:59.807Z,100857.98
2019-05-23T02:25:29.093Z,100858.42
2019-05-23T02:27:57.654Z,100853.20
2019-05-23T02:30:34.800Z,100851.63
2019-05-23T02:32:56.971Z,100846.38
2019-05-23T02:35:25.152Z,100853.89
2019-05-23T02:38:21.623Z,100849.20
2019-05-23T02:41:20.657Z,100856.00
2019-05-23T02:43:58.251Z,100854.37
2019-05-23T02:46:31.289Z,100854.07
2019-05-23T02:49:04.422Z,100854.91
2019-05-23T02:51:36.415Z,100850.39
2019-05-23T02:54:08.796Z,100851.98
2019-05-23T02:56:40.720Z,100852.31
2019-05-23T02:59:52.282Z,100846.47
2019-05-23T03:02:53.695Z,100846.34
2019-05-23T03:05:25.513Z,100853.59
2019-05-23T03:07:55.590Z,100847.95
2019-05-23T03:10:23.972Z,100849.61
2019-05-23T03:12:52.430Z,100842.05
2019-05-23T03:15:22.124Z,100847.91
2019-05-23T03:17:55.046Z,100843.98
2019-05-23T03:20:23.457Z,100854.23
2019-05-23T03:22:57.554Z,100853.92
2019-05-23T03:26:31.408Z,100852.88
2019-05-23T03:28:59.945Z,100863.77
2019-05-23T03:31:33.618Z,100862.01
2019-05-23T03:34:01.829Z,100863.16
2019-05-23T03:36:29.784Z,100862.94
2019-05-23T03:38:57.279Z,100862.53
2019-05-23T03:41:25.649Z,100863.58
2019-05-23T03:43:54.377Z,100860.34
2019-05-23T03:46:25.814Z,100855.19
2019-05-23T03:48:53.643Z,100865.03
2019-05-23T03:51:23.509Z,100862.09
2019-05-23T03:53:51.425Z,100863.23
2019-05-23T03:56:19.483Z,100855.05
2019-05-23T03:58:47.882Z,100854.11
2019-05-23T04:01:18.455Z,100859.77
2019-05-23T04:03:47.354Z,100857.87
2019-05-23T04:06:15.674Z,100854.88
2019-05-23T04:08:43.383Z,100855.78
2019-05-23T04:11:11.012Z,100848.97
2019-05-23T04:13:38.586Z,100854.63
2019-05-23T04:16:06.615Z,100849.40
2019-05-23T04:18:34.836Z,100847.15
2019-05-23T04:21:02.582Z,100852.20
2019-05-23T04:23:30.083Z,100850.95
2019-05-23T04:25:57.882Z,100848.30
2019-05-23T04:28:26.377Z,100838.64
2019-05-23T04:30:54.366Z,100841.94
2019-05-23T04:33:22.203Z,100845.27
2019-05-23T04:35:49.657Z,100857.05
2019-05-23T04:38:17.242Z,100844.64
2019-05-23T04:40:45.068Z,100847.85
2019-05-23T04:43:12.573Z,100851.80
2019-05-23T04:45:41.304Z,100850.13
2019-05-23T04:48:08.976Z,100851.44
2019-05-23T04:50:36.481Z,100852.05
2019-05-23T04:53:06.403Z,100850.20
2019-05-23T04:55:35.720Z,100856.32
2019-05-23T04:58:05.056Z,100859.66
2019-05-23T05:00:32.693Z,100860.66
2019-05-23T05:03:00.510Z,100854.48
2019-05-23T05:05:29.355Z,100851.80
2019-05-23T05:07:56.682Z,100855.07
2019-05-23T05:10:25.669Z,100852.04
2019-05-23T05:12:53.199Z,100852.66
2019-05-23T05:15:35.877Z,100847.92
2019-05-23T05:18:05.429Z,100848.33
2019-05-23T05:20:33.399Z,100845.89
2019-05-23T05:23:01.097Z,100853.05
2019-05-23T05:25:29.105Z,100847.58
2019-05-23T05:27:57.204Z,100849.71
2019-05-23T05:30:25.558Z,100856.17
2019-05-23T05:32:53.000Z,100852.41
2019-05-23T05:35:20.598Z,100850.42
2019-05-23T05:37:48.097Z,100849.09
2019-05-23T05:40:17.549Z,100854.11
2019-05-23T05:42:45.548Z,100855.16
2019-05-23T05:45:14.401Z,100860.56
2019-05-23T05:47:42.367Z,100862.98
2019-05-23T05:50:12.121Z,100857.99
2019-05-23T05:52:40.265Z,100858.55
2019-05-23T05:55:09.426Z,100866.04
2019-05-23T05:57:42.302Z,100864.03
2019-05-23T06:00:22.724Z,100866.33
2019-05-23T06:03:03.725Z,100868.08
2019-05-23T06:05:28.307Z,100868.39
2019-05-23T06:07:55.626Z,100872.94
2019-05-23T06:10:23.774Z,100864.51
2019-05-23T06:12:51.214Z,100866.84
2019-05-23T06:15:20.238Z,100871.16
2019-05-23T06:17:48.105Z,100870.67
2019-05-23T06:20:17.132Z,100870.03
2019-05-23T06:22:45.484Z,100876.42
2019-05-23T06:25:13.467Z,100870.75
2019-05-23T06:27:41.627Z,100870.22
2019-05-23T06:30:11.729Z,100861.78
2019-05-23T06:32:39.492Z,100863.91
2019-05-23T06:35:08.282Z,100865.02
2019-05-23T06:37:36.382Z,100867.92
2019-05-23T06:40:05.845Z,100868.76
2019-05-23T06:42:33.431Z,100869.59
2019-05-23T06:45:01.117Z,100865.30
2019-05-23T06:47:29.797Z,100875.48
2019-05-23T06:49:57.240Z,100870.90
2019-05-23T06:52:25.020Z,100868.77
2019-05-23T06:54:52.395Z,100863.58
2019-05-23T06:57:19.975Z,100863.83
2019-05-23T06:59:47.862Z,100868.00
2019-05-23T07:02:15.659Z,100866.21
2019-05-23T07:04:43.736Z,100867.91
2019-05-23T07:07:11.515Z,100870.95
2019-05-23T07:09:39.684Z,100870.97
2019-05-23T07:12:07.855Z,100874.84
2019-05-23T07:14:35.910Z,100874.03
2019-05-23T07:17:03.895Z,100870.73
2019-05-23T07:19:31.403Z,100871.83
2019-05-23T07:22:00.423Z,100878.73
2019-05-23T07:24:28.301Z,100881.20
2019-05-23T07:26:56.412Z,100880.10
2019-05-23T07:29:24.072Z,100882.05
2019-05-23T07:31:52.234Z,100879.86
2019-05-23T07:34:20.401Z,100880.44
2019-05-23T07:36:48.614Z,100875.98
2019-05-23T07:39:20.463Z,100885.40
2019-05-23T07:41:48.404Z,100885.69
2019-05-23T07:44:16.390Z,100881.27
2019-05-23T07:46:44.577Z,100879.08
2019-05-23T07:49:12.093Z,100876.59
2019-05-23T07:51:39.428Z,100877.45
2019-05-23T07:54:35.662Z,100874.40
2019-05-23T07:57:06.433Z,100871.61
2019-05-23T07:59:33.888Z,100869.42
2019-05-23T08:02:15.993Z,100871.91
2019-05-23T08:04:43.656Z,100872.18
2019-05-23T08:07:13.227Z,100864.97
2019-05-23T08:09:40.794Z,100859.15
2019-05-23T08:12:08.644Z,100858.56
2019-05-23T08:14:36.482Z,100856.63
2019-05-23T08:17:04.399Z,100851.09
2019-05-23T08:19:48.180Z,100851.07
2019-05-23T08:22:01.988Z,100850.20
2019-05-23T08:24:29.376Z,100849.63
2019-05-23T08:26:56.680Z,100853.70
2019-05-23T08:29:26.702Z,100856.16
2019-05-23T08:31:54.310Z,100851.97
2019-05-23T08:34:40.081Z,100854.77
2019-05-23T08:36:51.952Z,100853.94
2019-05-23T08:39:22.148Z,100848.05
2019-05-23T08:41:50.046Z,100847.56
2019-05-23T08:44:17.315Z,100849.42
2019-05-23T08:46:46.287Z,100845.73
2019-05-23T08:49:13.956Z,100841.78
2019-05-23T08:51:41.325Z,100841.16
2019-05-23T08:54:08.942Z,100838.03
2019-05-23T08:56:37.010Z,100834.07
2019-05-23T08:59:05.797Z,100830.13
2019-05-23T09:01:33.691Z,100825.33
2019-05-23T09:04:02.058Z,100823.38
2019-05-23T09:06:30.040Z,100832.27
2019-05-23T09:08:57.614Z,100822.70
2019-05-23T09:11:25.296Z,100824.28
2019-05-23T09:13:52.935Z,100817.25
2019-05-23T09:16:20.408Z,100814.77
2019-05-23T09:18:47.649Z,100821.16
2019-05-23T09:21:15.132Z,100812.86
2019-05-23T09:23:42.529Z,100808.53
2019-05-23T09:26:09.848Z,100811.89
2019-05-23T09:28:37.127Z,100810.19
2019-05-23T09:31:05.537Z,100811.48
2019-05-23T09:33:33.105Z,100815.29
2019-05-23T09:36:01.089Z,100812.57
2019-05-23T09:38:28.622Z,100812.89
2019-05-23T09:40:57.371Z,100803.69
2019-05-23T09:43:25.040Z,100811.31
2019-05-23T09:45:52.596Z,100800.44
2019-05-23T09:48:20.568Z,100796.87
2019-05-23T09:50:47.909Z,100792.53
2019-05-23T09:53:16.626Z,100795.89
2019-05-23T09:55:44.058Z,100798.27
2019-05-23T09:58:11.840Z,100798.05
2019-05-23T10:00:39.600Z,100800.50
2019-05-23T10:03:07.434Z,100796.48
2019-05-23T10:05:42.923Z,100788.55
2019-05-23T10:08:05.379Z,100790.47
2019-05-23T10:10:33.042Z,100783.27
2019-05-23T10:13:00.433Z,100777.04
2019-05-23T10:15:38.503Z,100776.28
2019-05-23T10:18:08.282Z,100770.86
2019-05-23T10:20:35.782Z,100767.80
2019-05-23T10:23:03.967Z,100768.27
2019-05-23T10:25:31.478Z,100766.73
2019-05-23T10:27:58.952Z,100759.94
2019-05-23T10:30:26.633Z,100758.52
2019-05-23T10:32:54.296Z,100749.86
2019-05-23T10:35:22.574Z,100753.75
2019-05-23T10:37:50.931Z,100743.81
2019-05-23T10:40:19.674Z,100748.22
2019-05-23T10:42:47.531Z,100746.84
2019-05-23T10:45:15.297Z,100742.86
2019-05-23T10:47:42.673Z,100734.97
2019-05-23T10:50:10.775Z,100735.27
2019-05-23T10:52:38.340Z,100736.81
2019-05-23T10:55:06.423Z,100730.41
2019-05-23T10:57:34.086Z,100728.22
2019-05-23T11:00:02.142Z,100720.08
2019-05-23T11:02:29.620Z,100727.36
2019-05-23T11:04:57.781Z,100724.25
2019-05-23T11:07:25.861Z,100716.20
2019-05-23T11:09:54.003Z,100709.32
2019-05-23T11:12:21.778Z,100704.22
2019-05-23T11:14:49.153Z,100707.66
2019-05-23T11:17:17.013Z,100708.28
2019-05-23T11:19:44.469Z,100701.66
2019-05-23T11:22:12.286Z,100694.59
2019-05-23T11:24:40.160Z,100692.20
2019-05-23T11:27:07.408Z,100689.66
2019-05-23T11:29:43.676Z,100690.15
2019-05-23T11:32:12.289Z,100687.67
2019-05-23T11:34:39.750Z,100679.61
2019-05-23T11:37:07.120Z,100669.05
2019-05-23T11:39:42.150Z,100673.19
2019-05-23T11:42:05.113Z,100670.95
2019-05-23T11:44:33.071Z,100669.63
2019-05-23T11:47:12.465Z,100669.12
2019-05-23T11:49:40.275Z,100660.95
2019-05-23T11:52:08.192Z,100659.83
2019-05-23T11:54:35.672Z,100657.39
2019-05-23T11:57:04.408Z,100658.83
2019-05-23T11:59:31.695Z,100656.00
2019-05-23T12:02:17.659Z,100655.55
2019-05-23T12:04:45.066Z,100654.05
2019-05-23T12:07:16.450Z,100646.58
2019-05-23T12:09:44.650Z,100641.66
2019-05-23T12:12:12.111Z,100640.15
2019-05-23T12:14:41.074Z,100640.84
2019-05-23T12:17:08.466Z,100634.66
2019-05-23T12:19:36.034Z,100639.92
2019-05-23T12:22:04.690Z,100634.12
2019-05-23T12:24:35.480Z,100631.89
2019-05-23T12:27:02.092Z,100626.21
2019-05-23T12:29:30.748Z,100624.65
2019-05-23T12:31:58.466Z,100620.44
2019-05-23T12:34:25.720Z,100623.16
2019-05-23T12:36:53.227Z,100618.73
2019-05-23T12:39:20.829Z,100619.47
2019-05-23T12:41:52.736Z,100613.50
2019-05-23T12:44:20.602Z,100620.27
2019-05-23T12:46:48.500Z,100613.80
2019-05-23T12:49:33.428Z,100609.73
2019-05-23T12:52:07.359Z,100608.96
2019-05-23T12:54:35.093Z,100614.33
2019-05-23T12:57:03.681Z,100611.19
2019-05-23T12:59:31.153Z,100598.66
2019-05-23T13:02:00.846Z,100606.23
2019-05-23T13:04:28.886Z,100599.12
2019-05-23T13:06:56.622Z,100601.12
2019-05-23T13:09:24.204Z,100600.84
2019-05-23T13:11:52.036Z,100602.84
2019-05-23T13:14:19.224Z,100595.66
2019-05-23T13:16:46.932Z,100601.98
2019-05-23T13:19:14.438Z,100600.03
2019-05-23T13:21:41.777Z,100600.39
2019-05-23T13:24:09.335Z,100596.25
2019-05-23T13:26:36.606Z,100597.66
2019-05-23T13:29:04.116Z,100591.54
2019-05-23T13:31:31.574Z,100588.02
2019-05-23T13:33:58.954Z,100586.27
2019-05-23T13:36:26.314Z,100584.54
2019-05-23T13:38:53.874Z,100590.52
2019-05-23T13:41:23.356Z,100586.61
2019-05-23T13:43:58.475Z,100581.99
2019-05-23T13:46:25.718Z,100574.23
2019-05-23T13:48:53.202Z,100579.16
2019-05-23T13:51:20.593Z,100573.46
2019-05-23T13:53:48.089Z,100571.20
2019-05-23T13:56:16.373Z,100573.91
2019-05-23T13:58:44.628Z,100571.56
2019-05-23T14:01:12.497Z,100572.60
2019-05-23T14:03:40.974Z,100571.08
2019-05-23T14:06:10.805Z,100563.11
2019-05-23T14:08:38.213Z,100565.34
2019-05-23T14:11:06.946Z,100565.63
2019-05-23T14:13:34.533Z,100557.21
2019-05-23T14:16:04.669Z,100555.77
2019-05-23T14:18:32.752Z,100549.19
2019-05-23T14:21:00.278Z,100547.81
2019-05-23T14:23:30.293Z,100537.84
2019-05-23T14:25:59.066Z,100536.94
2019-05-23T14:28:31.374Z,100542.10
2019-05-23T14:31:07.144Z,100533.34
2019-05-23T14:33:42.492Z,100532.53
2019-05-23T14:36:18.833Z,100536.66
2019-05-23T14:38:47.097Z,100532.91
2019-05-23T14:41:15.200Z,100539.95
2019-05-23T14:43:44.106Z,100533.29
2019-05-23T14:46:14.037Z,100533.75
2019-05-23T14:48:48.613Z,100531.63
2019-05-23T14:51:24.287Z,100529.04
2019-05-23T14:53:55.539Z,100521.46
2019-05-23T14:56:23.858Z,100519.47
2019-05-23T14:58:52.185Z,100516.30
2019-05-23T15:01:23.339Z,100514.56
2019-05-23T15:03:51.398Z,100511.03
2019-05-23T15:06:19.602Z,100513.12
2019-05-23T15:08:51.343Z,100505.05
2019-05-23T15:11:16.219Z,100506.23
2019-05-23T15:13:43.748Z,100508.58
2019-05-23T15:16:11.951Z,100509.03
2019-05-23T15:18:40.660Z,100501.91
2019-05-23T15:21:13.391Z,100502.01
2019-05-23T15:23:47.592Z,100497.33
2019-05-23T15:26:23.459Z,100504.58
2019-05-23T15:28:48.952Z,100491.94
2019-05-23T15:31:16.736Z,100494.88
2019-05-23T15:33:44.353Z,100488.05
2019-05-23T15:36:11.757Z,100486.16
2019-05-23T15:38:39.455Z,100491.78
2019-05-23T15:41:08.649Z,100483.58
2019-05-23T15:43:36.292Z,100489.19
2019-05-23T15:46:10.961Z,100485.56
2019-05-23T15:48:38.564Z,100490.08
2019-05-23T15:51:06.501Z,100492.31
2019-05-23T15:53:41.183Z,100486.09
2019-05-23T15:56:27.655Z,100485.55
2019-05-23T15:59:01.527Z,100487.28
2019-05-23T16:01:54.358Z,100489.47
2019-05-23T16:04:21.712Z,100483.22
2019-05-23T16:06:49.485Z,100485.70
2019-05-23T16:09:29.595Z,100482.20
2019-05-23T16:11:51.540Z,100480.13
2019-05-23T16:14:25.126Z,100476.44
2019-05-23T16:16:56.441Z,100474.80
2019-05-23T16:19:22.967Z,100470.84
2019-05-23T16:21:50.436Z,100477.91
2019-05-23T16:24:18.160Z,100466.78
2019-05-23T16:26:47.143Z,100468.73
2019-05-23T16:29:15.657Z,100463.38
2019-05-23T16:31:43.635Z,100458.95
2019-05-23T16:34:11.101Z,100453.20
2019-05-23T16:36:38.697Z,100454.52
2019-05-23T16:39:07.107Z,100458.64
2019-05-23T16:41:34.628Z,100458.64
2019-05-23T16:44:02.260Z,100465.76
2019-05-23T16:46:29.563Z,100459.45
2019-05-23T16:48:57.458Z,100458.88
2019-05-23T16:51:24.806Z,100459.91
2019-05-23T16:53:52.286Z,100461.75
2019-05-23T16:56:28.680Z,100453.87
2019-05-23T16:59:08.052Z,100457.48
2019-05-23T17:01:59.184Z,100456.81
2019-05-23T17:04:35.135Z,100461.28
2019-05-23T17:07:29.159Z,100456.64
2019-05-23T17:10:25.278Z,100455.95
2019-05-23T17:13:15.350Z,100454.65
2019-05-23T17:16:17.663Z,100450.13
2019-05-23T17:19:03.826Z,100455.31
2019-05-23T17:21:39.329Z,100453.13
2019-05-23T17:24:27.081Z,100455.34
2019-05-23T17:26:59.692Z,100451.93
2019-05-23T17:29:45.060Z,100453.50
2019-05-23T17:32:16.550Z,100450.07
2019-05-23T17:34:43.825Z,100442.83
2019-05-23T17:37:12.612Z,100440.37
2019-05-23T17:39:43.066Z,100441.77
2019-05-23T17:42:10.753Z,100445.70
2019-05-23T17:44:38.461Z,100448.94
2019-05-23T17:47:05.911Z,100450.50
2019-05-23T17:49:33.805Z,100440.95
2019-05-23T17:52:01.317Z,100448.77
2019-05-23T17:54:30.062Z,100439.72
2019-05-23T17:56:57.544Z,100447.63
2019-05-23T17:59:26.114Z,100438.95
2019-05-23T18:01:53.974Z,100441.41
2019-05-23T18:04:22.142Z,100443.77
2019-05-23T18:06:49.944Z,100444.09
2019-05-23T18:09:17.811Z,100448.58
2019-05-23T18:11:47.447Z,100449.05
2019-05-23T18:14:17.611Z,100444.32
2019-05-23T18:16:46.993Z,100449.80
2019-05-23T18:19:14.827Z,100450.82
2019-05-23T18:21:42.765Z,100452.62
2019-05-23T18:24:11.041Z,100445.67
2019-05-23T18:26:38.815Z,100449.93
2019-05-23T18:29:06.592Z,100455.62
2019-05-23T18:31:35.920Z,100440.30
2019-05-23T18:34:04.571Z,100441.94
2019-05-23T18:36:32.137Z,100444.11
2019-05-23T18:38:59.680Z,100443.03
2019-05-23T18:41:29.904Z,100448.02
2019-05-23T18:43:58.628Z,100452.30
2019-05-23T18:46:31.963Z,100451.92
2019-05-23T18:49:00.584Z,100451.89
2019-05-23T18:51:28.198Z,100457.50
2019-05-23T18:54:04.398Z,100459.56
2019-05-23T18:56:32.520Z,100451.61
2019-05-23T18:59:00.606Z,100458.16
2019-05-23T19:01:29.008Z,100460.97
2019-05-23T19:03:56.942Z,100462.18
2019-05-23T19:06:24.454Z,100466.80
2019-05-23T19:08:52.135Z,100464.33
2019-05-23T19:11:21.791Z,100458.34
2019-05-23T19:13:49.843Z,100462.28
2019-05-23T19:16:17.703Z,100464.34
2019-05-23T19:18:45.666Z,100465.80
2019-05-23T19:21:19.315Z,100465.61
2019-05-23T19:23:46.917Z,100462.36
2019-05-23T19:26:14.894Z,100465.02
2019-05-23T19:28:43.922Z,100468.19
2019-05-23T19:31:11.738Z,100466.60
2019-05-23T19:33:39.814Z,100471.71
2019-05-23T19:36:09.628Z,100465.72
2019-05-23T19:38:38.373Z,100476.77
2019-05-23T19:41:06.548Z,100466.67
2019-05-23T19:43:38.048Z,100475.94
2019-05-23T19:46:05.442Z,100465.62
2019-05-23T19:48:33.293Z,100470.09
2019-05-23T19:51:00.931Z,100470.19
2019-05-23T19:53:29.092Z,100473.16
2019-05-23T19:55:56.596Z,100467.20
2019-05-23T19:58:24.167Z,100474.87
2019-05-23T20:00:51.778Z,100477.30
2019-05-23T20:03:19.566Z,100472.69
2019-05-23T20:05:48.339Z,100469.83
2019-05-23T20:08:16.316Z,100476.05
2019-05-23T20:10:44.698Z,100480.69
2019-05-23T20:13:12.293Z,100474.67
2019-05-23T20:15:39.769Z,100478.59
2019-05-23T20:18:10.420Z,100473.28
2019-05-23T20:20:39.184Z,100468.11
2019-05-23T20:23:07.667Z,100470.87
2019-05-23T20:25:37.207Z,100473.14
2019-05-23T20:28:06.111Z,100469.02
2019-05-23T20:30:52.680Z,100470.66
2019-05-23T20:33:20.088Z,100477.34
2019-05-23T20:35:48.119Z,100473.98
2019-05-23T20:38:15.581Z,100466.55
2019-05-23T20:40:42.884Z,100473.91
2019-05-23T20:43:10.479Z,100466.88
2019-05-23T20:45:38.749Z,100473.56
2019-05-23T20:48:06.725Z,100470.82
2019-05-23T20:50:34.505Z,100464.20
2019-05-23T20:53:02.036Z,100473.33
2019-05-23T20:55:29.423Z,100464.22
2019-05-23T20:57:56.831Z,100462.84
2019-05-23T21:00:38.267Z,100460.61
2019-05-23T21:03:05.978Z,100473.59
2019-05-23T21:05:33.854Z,100473.30
2019-05-23T21:08:01.983Z,100471.93
2019-05-23T21:10:47.025Z,100476.34
2019-05-23T21:13:14.829Z,100480.77
2019-05-23T21:15:42.518Z,100479.95
2019-05-23T21:18:09.993Z,100474.17
2019-05-23T21:20:37.247Z,100473.33
2019-05-23T21:23:04.825Z,100479.16
2019-05-23T21:25:33.348Z,100479.69
2019-05-23T21:28:00.909Z,100483.02
2019-05-23T21:30:28.450Z,100480.23
2019-05-23T21:32:55.775Z,100480.52
2019-05-23T21:35:23.243Z,100485.20
2019-05-23T21:37:50.623Z,100482.09
2019-05-23T21:40:41.848Z,100478.47
2019-05-23T21:43:09.262Z,100481.98
2019-05-23T21:45:37.044Z,100470.66
2019-05-23T21:48:05.035Z,100480.04
2019-05-23T21:50:32.806Z,100477.30
2019-05-23T21:53:00.093Z,100469.61
2019-05-23T21:55:36.107Z,100473.75
2019-05-23T21:58:04.765Z,100475.67
2019-05-23T22:01:27.292Z,100478.13
2019-05-23T22:04:05.058Z,100474.55
2019-05-23T22:06:33.709Z,100476.12
2019-05-23T22:09:01.487Z,100471.72
2019-05-23T22:11:28.950Z,100471.16
2019-05-23T22:13:56.431Z,100464.58
2019-05-23T22:16:24.077Z,100470.58
2019-05-23T22:18:51.761Z,100465.41
2019-05-23T22:21:19.334Z,100474.13
2019-05-23T22:23:46.651Z,100471.96
2019-05-23T22:26:14.200Z,100473.34
2019-05-23T22:28:42.020Z,100479.02
2019-05-23T22:31:12.380Z,100468.28
2019-05-23T22:33:43.335Z,100466.63
2019-05-23T22:36:11.310Z,100466.08
2019-05-23T22:38:38.655Z,100463.56
2019-05-23T22:41:06.047Z,100464.39
2019-05-23T22:43:33.418Z,100463.52
2019-05-23T22:46:00.723Z,100464.82
2019-05-23T22:48:28.105Z,100465.88
2019-05-23T22:50:55.496Z,100464.70
2019-05-23T22:53:22.868Z,100460.47
2019-05-23T22:55:50.458Z,100466.52
2019-05-23T22:58:17.609Z,100469.23
2019-05-23T23:00:46.378Z,100465.10
2019-05-23T23:03:13.631Z,100456.84
2019-05-23T23:05:41.230Z,100461.25
2019-05-23T23:08:08.514Z,100467.48
2019-05-23T23:10:36.009Z,100468.57
2019-05-23T23:13:03.605Z,100471.86
2019-05-23T23:15:31.731Z,100468.78
2019-05-23T23:17:59.771Z,100471.48
2019-05-23T23:20:29.487Z,100461.80
2019-05-23T23:22:57.021Z,100466.18
2019-05-23T23:25:24.462Z,100459.64
2019-05-23T23:27:52.160Z,100461.84
2019-05-23T23:30:22.934Z,100460.09
2019-05-23T23:32:50.181Z,100453.82
2019-05-23T23:35:19.277Z,100450.19
2019-05-23T23:37:46.621Z,100453.34
2019-05-23T23:40:14.056Z,100454.37
2019-05-23T23:42:41.329Z,100456.72
2019-05-23T23:45:27.449Z,100454.19
2019-05-23T23:48:12.838Z,100455.77
2019-05-23T23:50:58.710Z,100458.40
2019-05-23T23:53:44.301Z,100456.64
2019-05-23T23:56:34.225Z,100453.00
2019-05-23T23:59:01.555Z,100455.87
